sensor_id;sensor_type;location;lat;lon;timestamp;P1;durP1;ratioP1;P2;durP2;ratioP2
47625;SDS011;33342;45.574;9.252;2023-05-08T00:01:01;5.80;;;3.00;;
47625;SDS011;33342;45.574;9.252;2023-05-08T00:03:28;7.43;;;3.33;;
47625;SDS011;33342;45.574;9.252;2023-05-08T00:05:55;5.70;;;3.40;;
47625;SDS011;33342;45.574;9.252;2023-05-08T00:08:23;7.00;;;4.20;;
47625;SDS011;33342;45.574;9.252;2023-05-08T00:10:50;6.28;;;4.47;;
47625;SDS011;33342;45.574;9.252;2023-05-08T00:13:17;10.35;;;4.30;;
47625;SDS011;33342;45.574;9.252;2023-05-08T00:15:44;8.00;;;5.57;;
47625;SDS011;33342;45.574;9.252;2023-05-08T00:18:11;8.73;;;5.65;;
47625;SDS011;33342;45.574;9.252;2023-05-08T00:20:38;7.57;;;5.72;;
47625;SDS011;33342;45.574;9.252;2023-05-08T00:23:05;9.05;;;5.93;;
47625;SDS011;33342;45.574;9.252;2023-05-08T00:25:32;11.48;;;6.53;;
47625;SDS011;33342;45.574;9.252;2023-05-08T00:27:59;10.07;;;6.68;;
47625;SDS011;33342;45.574;9.252;2023-05-08T00:30:26;8.38;;;6.53;;
47625;SDS011;33342;45.574;9.252;2023-05-08T00:32:54;10.75;;;7.03;;
47625;SDS011;33342;45.574;9.252;2023-05-08T00:35:21;9.07;;;7.10;;
47625;SDS011;33342;45.574;9.252;2023-05-08T00:37:48;9.25;;;8.02;;
47625;SDS011;33342;45.574;9.252;2023-05-08T00:40:15;12.25;;;8.38;;
47625;SDS011;33342;45.574;9.252;2023-05-08T00:42:42;12.23;;;7.93;;
47625;SDS011;33342;45.574;9.252;2023-05-08T00:45:09;10.32;;;8.48;;
47625;SDS011;33342;45.574;9.252;2023-05-08T00:47:36;9.73;;;8.40;;
47625;SDS011;33342;45.574;9.252;2023-05-08T00:50:04;11.95;;;8.07;;
47625;SDS011;33342;45.574;9.252;2023-05-08T00:52:32;10.60;;;9.15;;
47625;SDS011;33342;45.574;9.252;2023-05-08T00:55:00;10.55;;;8.23;;
47625;SDS011;33342;45.574;9.252;2023-05-08T00:57:29;9.73;;;8.50;;
47625;SDS011;33342;45.574;9.252;2023-05-08T01:00:00;11.85;;;9.52;;
47625;SDS011;33342;45.574;9.252;2023-05-08T01:02:29;11.68;;;9.27;;
47625;SDS011;33342;45.574;9.252;2023-05-08T01:04:57;17.65;;;9.48;;
47625;SDS011;33342;45.574;9.252;2023-05-08T01:07:25;11.48;;;9.13;;
47625;SDS011;33342;45.574;9.252;2023-05-08T01:09:53;11.88;;;8.90;;
47625;SDS011;33342;45.574;9.252;2023-05-08T01:20:45;11.43;;;8.70;;
47625;SDS011;33342;45.574;9.252;2023-05-08T01:34:51;9.43;;;7.95;;
47625;SDS011;33342;45.574;9.252;2023-05-08T01:40:24;9.00;;;7.88;;
47625;SDS011;33342;45.574;9.252;2023-05-08T01:43:07;9.90;;;7.93;;
47625;SDS011;33342;45.574;9.252;2023-05-08T01:45:50;11.82;;;8.20;;
47625;SDS011;33342;45.574;9.252;2023-05-08T01:48:38;12.23;;;8.80;;
47625;SDS011;33342;45.574;9.252;2023-05-08T01:51:13;15.82;;;10.45;;
47625;SDS011;33342;45.574;9.252;2023-05-08T01:53:48;18.33;;;12.30;;
47625;SDS011;33342;45.574;9.252;2023-05-08T01:56:20;14.43;;;10.70;;
47625;SDS011;33342;45.574;9.252;2023-05-08T01:58:50;15.30;;;11.13;;
47625;SDS011;33342;45.574;9.252;2023-05-08T02:01:19;17.73;;;12.20;;
47625;SDS011;33342;45.574;9.252;2023-05-08T02:03:50;17.38;;;11.85;;
47625;SDS011;33342;45.574;9.252;2023-05-08T02:06:19;15.50;;;11.63;;
47625;SDS011;33342;45.574;9.252;2023-05-08T02:08:48;15.98;;;11.55;;
47625;SDS011;33342;45.574;9.252;2023-05-08T02:11:16;16.35;;;12.02;;
47625;SDS011;33342;45.574;9.252;2023-05-08T02:13:46;18.17;;;11.15;;
47625;SDS011;33342;45.574;9.252;2023-05-08T02:16:14;14.75;;;11.55;;
47625;SDS011;33342;45.574;9.252;2023-05-08T02:18:45;18.08;;;12.48;;
47625;SDS011;33342;45.574;9.252;2023-05-08T02:21:16;17.08;;;12.48;;
47625;SDS011;33342;45.574;9.252;2023-05-08T02:23:44;14.07;;;10.50;;
47625;SDS011;33342;45.574;9.252;2023-05-08T02:26:12;15.63;;;11.35;;
47625;SDS011;33342;45.574;9.252;2023-05-08T02:28:41;14.63;;;11.20;;
47625;SDS011;33342;45.574;9.252;2023-05-08T02:31:08;15.45;;;10.05;;
47625;SDS011;33342;45.574;9.252;2023-05-08T02:33:37;15.13;;;11.98;;
47625;SDS011;33342;45.574;9.252;2023-05-08T02:36:07;14.32;;;10.43;;
47625;SDS011;33342;45.574;9.252;2023-05-08T02:38:36;13.30;;;11.52;;
47625;SDS011;33342;45.574;9.252;2023-05-08T02:41:05;17.02;;;12.18;;
47625;SDS011;33342;45.574;9.252;2023-05-08T02:43:34;15.95;;;11.27;;
47625;SDS011;33342;45.574;9.252;2023-05-08T02:46:07;14.88;;;11.10;;
47625;SDS011;33342;45.574;9.252;2023-05-08T02:48:54;14.13;;;11.02;;
47625;SDS011;33342;45.574;9.252;2023-05-08T02:54:20;15.13;;;11.13;;
47625;SDS011;33342;45.574;9.252;2023-05-08T02:59:59;15.10;;;11.15;;
47625;SDS011;33342;45.574;9.252;2023-05-08T03:05:05;15.02;;;11.63;;
47625;SDS011;33342;45.574;9.252;2023-05-08T03:07:41;15.50;;;12.02;;
47625;SDS011;33342;45.574;9.252;2023-05-08T03:10:11;15.65;;;11.57;;
47625;SDS011;33342;45.574;9.252;2023-05-08T03:12:45;18.92;;;11.10;;
47625;SDS011;33342;45.574;9.252;2023-05-08T03:15:36;13.88;;;11.57;;
47625;SDS011;33342;45.574;9.252;2023-05-08T03:18:13;12.95;;;11.57;;
47625;SDS011;33342;45.574;9.252;2023-05-08T03:20:47;14.65;;;11.60;;
47625;SDS011;33342;45.574;9.252;2023-05-08T03:23:19;15.35;;;11.80;;
47625;SDS011;33342;45.574;9.252;2023-05-08T03:25:48;13.57;;;11.60;;
47625;SDS011;33342;45.574;9.252;2023-05-08T03:28:17;14.65;;;11.98;;
47625;SDS011;33342;45.574;9.252;2023-05-08T03:30:45;14.40;;;11.65;;
47625;SDS011;33342;45.574;9.252;2023-05-08T03:33:14;16.92;;;13.13;;
47625;SDS011;33342;45.574;9.252;2023-05-08T03:35:43;16.50;;;12.88;;
47625;SDS011;33342;45.574;9.252;2023-05-08T03:38:11;15.25;;;12.52;;
47625;SDS011;33342;45.574;9.252;2023-05-08T03:40:40;13.32;;;11.95;;
47625;SDS011;33342;45.574;9.252;2023-05-08T03:43:09;14.02;;;11.48;;
47625;SDS011;33342;45.574;9.252;2023-05-08T03:45:38;15.60;;;12.43;;
47625;SDS011;33342;45.574;9.252;2023-05-08T03:48:06;15.10;;;11.95;;
47625;SDS011;33342;45.574;9.252;2023-05-08T03:50:36;17.70;;;13.45;;
47625;SDS011;33342;45.574;9.252;2023-05-08T03:53:06;15.43;;;11.50;;
47625;SDS011;33342;45.574;9.252;2023-05-08T03:55:33;16.27;;;11.77;;
47625;SDS011;33342;45.574;9.252;2023-05-08T03:58:09;14.52;;;11.98;;
47625;SDS011;33342;45.574;9.252;2023-05-08T04:01:06;15.48;;;12.57;;
47625;SDS011;33342;45.574;9.252;2023-05-08T04:11:29;16.00;;;13.10;;
47625;SDS011;33342;45.574;9.252;2023-05-08T04:14:02;15.88;;;13.63;;
47625;SDS011;33342;45.574;9.252;2023-05-08T04:16:35;14.13;;;12.63;;
47625;SDS011;33342;45.574;9.252;2023-05-08T04:19:09;16.27;;;13.43;;
47625;SDS011;33342;45.574;9.252;2023-05-08T04:21:41;15.43;;;13.20;;
47625;SDS011;33342;45.574;9.252;2023-05-08T04:24:11;15.27;;;12.85;;
47625;SDS011;33342;45.574;9.252;2023-05-08T04:26:40;15.43;;;12.77;;
47625;SDS011;33342;45.574;9.252;2023-05-08T04:29:08;15.07;;;12.45;;
47625;SDS011;33342;45.574;9.252;2023-05-08T04:31:37;15.70;;;12.20;;
47625;SDS011;33342;45.574;9.252;2023-05-08T04:34:05;15.15;;;12.05;;
47625;SDS011;33342;45.574;9.252;2023-05-08T04:36:35;14.75;;;12.55;;
47625;SDS011;33342;45.574;9.252;2023-05-08T04:39:04;12.73;;;11.20;;
47625;SDS011;33342;45.574;9.252;2023-05-08T04:41:31;15.73;;;12.98;;
47625;SDS011;33342;45.574;9.252;2023-05-08T04:43:59;14.82;;;12.35;;
47625;SDS011;33342;45.574;9.252;2023-05-08T04:46:26;13.05;;;10.85;;
47625;SDS011;33342;45.574;9.252;2023-05-08T04:48:53;12.55;;;11.05;;
47625;SDS011;33342;45.574;9.252;2023-05-08T04:51:20;14.18;;;11.45;;
47625;SDS011;33342;45.574;9.252;2023-05-08T04:53:48;13.43;;;11.18;;
47625;SDS011;33342;45.574;9.252;2023-05-08T04:56:15;13.25;;;11.23;;
47625;SDS011;33342;45.574;9.252;2023-05-08T04:58:42;13.80;;;10.88;;
47625;SDS011;33342;45.574;9.252;2023-05-08T05:01:10;12.88;;;10.55;;
47625;SDS011;33342;45.574;9.252;2023-05-08T05:03:37;17.80;;;11.48;;
47625;SDS011;33342;45.574;9.252;2023-05-08T05:06:04;13.07;;;10.93;;
47625;SDS011;33342;45.574;9.252;2023-05-08T05:08:31;13.90;;;10.93;;
47625;SDS011;33342;45.574;9.252;2023-05-08T05:10:58;17.25;;;11.85;;
47625;SDS011;33342;45.574;9.252;2023-05-08T05:13:26;13.43;;;10.70;;
47625;SDS011;33342;45.574;9.252;2023-05-08T05:15:53;18.90;;;15.43;;
47625;SDS011;33342;45.574;9.252;2023-05-08T05:18:22;13.38;;;11.40;;
47625;SDS011;33342;45.574;9.252;2023-05-08T05:20:50;16.17;;;10.95;;
47625;SDS011;33342;45.574;9.252;2023-05-08T05:23:18;14.15;;;11.23;;
47625;SDS011;33342;45.574;9.252;2023-05-08T05:25:45;12.90;;;10.38;;
47625;SDS011;33342;45.574;9.252;2023-05-08T05:28:12;12.85;;;10.15;;
47625;SDS011;33342;45.574;9.252;2023-05-08T05:30:39;10.93;;;9.10;;
47625;SDS011;33342;45.574;9.252;2023-05-08T05:33:06;11.57;;;8.77;;
47625;SDS011;33342;45.574;9.252;2023-05-08T05:35:35;11.15;;;8.57;;
47625;SDS011;33342;45.574;9.252;2023-05-08T05:38:02;12.23;;;8.60;;
47625;SDS011;33342;45.574;9.252;2023-05-08T05:40:29;10.32;;;8.02;;
47625;SDS011;33342;45.574;9.252;2023-05-08T05:42:56;10.82;;;8.70;;
47625;SDS011;33342;45.574;9.252;2023-05-08T05:45:23;11.65;;;9.13;;
47625;SDS011;33342;45.574;9.252;2023-05-08T05:47:50;11.30;;;9.15;;
47625;SDS011;33342;45.574;9.252;2023-05-08T05:50:21;10.90;;;8.63;;
47625;SDS011;33342;45.574;9.252;2023-05-08T05:52:49;10.80;;;8.35;;
47625;SDS011;33342;45.574;9.252;2023-05-08T05:55:16;10.40;;;8.68;;
47625;SDS011;33342;45.574;9.252;2023-05-08T05:57:45;12.93;;;8.30;;
47625;SDS011;33342;45.574;9.252;2023-05-08T06:00:14;12.68;;;8.35;;
47625;SDS011;33342;45.574;9.252;2023-05-08T06:02:46;11.73;;;8.40;;
47625;SDS011;33342;45.574;9.252;2023-05-08T06:05:15;25.80;;;22.20;;
47625;SDS011;33342;45.574;9.252;2023-05-08T06:07:44;16.45;;;14.13;;
47625;SDS011;33342;45.574;9.252;2023-05-08T06:10:11;11.20;;;9.07;;
47625;SDS011;33342;45.574;9.252;2023-05-08T06:12:39;12.25;;;8.48;;
47625;SDS011;33342;45.574;9.252;2023-05-08T06:15:07;10.10;;;8.35;;
47625;SDS011;33342;45.574;9.252;2023-05-08T06:17:35;12.05;;;8.73;;
47625;SDS011;33342;45.574;9.252;2023-05-08T06:20:02;11.60;;;9.07;;
47625;SDS011;33342;45.574;9.252;2023-05-08T06:22:30;10.68;;;8.93;;
47625;SDS011;33342;45.574;9.252;2023-05-08T06:24:57;12.18;;;9.48;;
47625;SDS011;33342;45.574;9.252;2023-05-08T06:27:24;10.85;;;8.15;;
47625;SDS011;33342;45.574;9.252;2023-05-08T06:29:51;12.25;;;9.02;;
47625;SDS011;33342;45.574;9.252;2023-05-08T06:32:19;10.85;;;8.63;;
47625;SDS011;33342;45.574;9.252;2023-05-08T06:34:47;10.88;;;8.38;;
47625;SDS011;33342;45.574;9.252;2023-05-08T06:37:14;10.57;;;8.07;;
47625;SDS011;33342;45.574;9.252;2023-05-08T06:39:41;11.82;;;8.32;;
47625;SDS011;33342;45.574;9.252;2023-05-08T06:42:08;10.18;;;8.23;;
47625;SDS011;33342;45.574;9.252;2023-05-08T06:44:38;10.57;;;8.15;;
47625;SDS011;33342;45.574;9.252;2023-05-08T06:47:06;11.55;;;8.48;;
47625;SDS011;33342;45.574;9.252;2023-05-08T06:49:37;10.57;;;8.10;;
47625;SDS011;33342;45.574;9.252;2023-05-08T06:52:04;12.35;;;8.55;;
47625;SDS011;33342;45.574;9.252;2023-05-08T06:54:31;10.48;;;8.05;;
47625;SDS011;33342;45.574;9.252;2023-05-08T06:56:58;11.38;;;8.98;;
47625;SDS011;33342;45.574;9.252;2023-05-08T06:59:25;12.60;;;8.52;;
47625;SDS011;33342;45.574;9.252;2023-05-08T07:01:52;10.70;;;7.95;;
47625;SDS011;33342;45.574;9.252;2023-05-08T07:04:19;12.00;;;8.95;;
47625;SDS011;33342;45.574;9.252;2023-05-08T07:06:46;10.52;;;7.40;;
47625;SDS011;33342;45.574;9.252;2023-05-08T07:09:13;10.45;;;7.50;;
47625;SDS011;33342;45.574;9.252;2023-05-08T07:11:41;8.25;;;7.00;;
47625;SDS011;33342;45.574;9.252;2023-05-08T07:14:08;14.23;;;7.22;;
47625;SDS011;33342;45.574;9.252;2023-05-08T07:16:35;11.98;;;7.63;;
47625;SDS011;33342;45.574;9.252;2023-05-08T07:19:03;11.52;;;8.15;;
47625;SDS011;33342;45.574;9.252;2023-05-08T07:21:30;11.85;;;7.97;;
47625;SDS011;33342;45.574;9.252;2023-05-08T07:23:57;8.77;;;7.38;;
47625;SDS011;33342;45.574;9.252;2023-05-08T07:26:24;11.32;;;7.80;;
47625;SDS011;33342;45.574;9.252;2023-05-08T07:28:51;9.70;;;6.78;;
47625;SDS011;33342;45.574;9.252;2023-05-08T07:31:19;13.45;;;6.93;;
47625;SDS011;33342;45.574;9.252;2023-05-08T07:33:47;8.38;;;6.50;;
47625;SDS011;33342;45.574;9.252;2023-05-08T07:36:14;8.93;;;6.18;;
47625;SDS011;33342;45.574;9.252;2023-05-08T07:38:41;11.75;;;7.47;;
47625;SDS011;33342;45.574;9.252;2023-05-08T07:41:08;11.27;;;6.93;;
47625;SDS011;33342;45.574;9.252;2023-05-08T07:43:35;12.23;;;7.35;;
47625;SDS011;33342;45.574;9.252;2023-05-08T07:46:02;10.48;;;7.10;;
47625;SDS011;33342;45.574;9.252;2023-05-08T07:48:30;10.13;;;7.63;;
47625;SDS011;33342;45.574;9.252;2023-05-08T07:50:57;10.10;;;7.70;;
47625;SDS011;33342;45.574;9.252;2023-05-08T07:53:24;10.55;;;7.20;;
47625;SDS011;33342;45.574;9.252;2023-05-08T07:55:51;12.50;;;7.63;;
47625;SDS011;33342;45.574;9.252;2023-05-08T07:58:18;11.73;;;7.60;;
47625;SDS011;33342;45.574;9.252;2023-05-08T08:00:48;8.88;;;7.15;;
47625;SDS011;33342;45.574;9.252;2023-05-08T08:03:15;9.55;;;7.60;;
47625;SDS011;33342;45.574;9.252;2023-05-08T08:05:42;8.77;;;6.40;;
47625;SDS011;33342;45.574;9.252;2023-05-08T08:08:09;8.32;;;6.63;;
47625;SDS011;33342;45.574;9.252;2023-05-08T08:10:37;9.30;;;5.95;;
47625;SDS011;33342;45.574;9.252;2023-05-08T08:13:05;11.80;;;6.95;;
47625;SDS011;33342;45.574;9.252;2023-05-08T08:15:32;9.10;;;5.85;;
47625;SDS011;33342;45.574;9.252;2023-05-08T08:17:59;7.85;;;6.35;;
47625;SDS011;33342;45.574;9.252;2023-05-08T08:20:27;9.50;;;6.75;;
47625;SDS011;33342;45.574;9.252;2023-05-08T08:22:54;8.88;;;6.80;;
47625;SDS011;33342;45.574;9.252;2023-05-08T08:25:20;10.40;;;7.25;;
47625;SDS011;33342;45.574;9.252;2023-05-08T08:27:47;10.20;;;7.07;;
47625;SDS011;33342;45.574;9.252;2023-05-08T08:30:14;9.35;;;6.93;;
47625;SDS011;33342;45.574;9.252;2023-05-08T08:32:44;8.00;;;6.28;;
47625;SDS011;33342;45.574;9.252;2023-05-08T08:35:11;9.20;;;6.97;;
47625;SDS011;33342;45.574;9.252;2023-05-08T08:37:39;9.15;;;7.00;;
47625;SDS011;33342;45.574;9.252;2023-05-08T08:40:06;10.63;;;7.25;;
47625;SDS011;33342;45.574;9.252;2023-05-08T08:42:33;8.25;;;6.25;;
47625;SDS011;33342;45.574;9.252;2023-05-08T08:45:01;7.85;;;6.20;;
47625;SDS011;33342;45.574;9.252;2023-05-08T08:47:33;9.40;;;6.30;;
47625;SDS011;33342;45.574;9.252;2023-05-08T08:52:47;11.27;;;6.78;;
47625;SDS011;33342;45.574;9.252;2023-05-08T08:55:21;9.07;;;6.28;;
47625;SDS011;33342;45.574;9.252;2023-05-08T09:00:21;8.90;;;6.78;;
47625;SDS011;33342;45.574;9.252;2023-05-08T09:02:50;9.75;;;6.80;;
47625;SDS011;33342;45.574;9.252;2023-05-08T09:05:17;9.68;;;6.68;;
47625;SDS011;33342;45.574;9.252;2023-05-08T09:07:49;8.23;;;6.40;;
47625;SDS011;33342;45.574;9.252;2023-05-08T09:10:19;9.10;;;6.57;;
47625;SDS011;33342;45.574;9.252;2023-05-08T09:12:48;8.98;;;6.30;;
47625;SDS011;33342;45.574;9.252;2023-05-08T09:15:15;10.05;;;6.60;;
47625;SDS011;33342;45.574;9.252;2023-05-08T09:17:42;9.68;;;6.15;;
47625;SDS011;33342;45.574;9.252;2023-05-08T09:20:10;10.63;;;7.28;;
47625;SDS011;33342;45.574;9.252;2023-05-08T09:22:40;10.40;;;7.18;;
47625;SDS011;33342;45.574;9.252;2023-05-08T09:25:09;9.70;;;7.53;;
47625;SDS011;33342;45.574;9.252;2023-05-08T09:27:36;8.55;;;6.88;;
47625;SDS011;33342;45.574;9.252;2023-05-08T09:30:07;7.97;;;6.35;;
47625;SDS011;33342;45.574;9.252;2023-05-08T09:32:36;8.77;;;6.60;;
47625;SDS011;33342;45.574;9.252;2023-05-08T09:35:06;9.93;;;7.55;;
47625;SDS011;33342;45.574;9.252;2023-05-08T09:37:39;11.38;;;8.43;;
47625;SDS011;33342;45.574;9.252;2023-05-08T09:40:18;12.30;;;10.05;;
47625;SDS011;33342;45.574;9.252;2023-05-08T09:42:48;11.55;;;9.60;;
47625;SDS011;33342;45.574;9.252;2023-05-08T09:45:28;12.57;;;9.90;;
47625;SDS011;33342;45.574;9.252;2023-05-08T09:47:57;12.32;;;9.75;;
47625;SDS011;33342;45.574;9.252;2023-05-08T09:50:24;12.38;;;10.88;;
47625;SDS011;33342;45.574;9.252;2023-05-08T09:52:52;14.23;;;10.50;;
47625;SDS011;33342;45.574;9.252;2023-05-08T09:55:19;12.55;;;11.20;;
47625;SDS011;33342;45.574;9.252;2023-05-08T09:57:53;13.20;;;11.80;;
47625;SDS011;33342;45.574;9.252;2023-05-08T10:00:23;14.30;;;11.80;;
47625;SDS011;33342;45.574;9.252;2023-05-08T10:05:24;13.40;;;12.00;;
47625;SDS011;33342;45.574;9.252;2023-05-08T10:07:53;14.77;;;12.35;;
47625;SDS011;33342;45.574;9.252;2023-05-08T10:10:27;15.70;;;14.10;;
47625;SDS011;33342;45.574;9.252;2023-05-08T10:12:57;15.38;;;13.88;;
47625;SDS011;33342;45.574;9.252;2023-05-08T10:15:25;13.32;;;10.57;;
47625;SDS011;33342;45.574;9.252;2023-05-08T10:20:28;11.23;;;8.98;;
47625;SDS011;33342;45.574;9.252;2023-05-08T10:22:56;11.40;;;8.10;;
47625;SDS011;33342;45.574;9.252;2023-05-08T10:25:24;10.98;;;8.40;;
47625;SDS011;33342;45.574;9.252;2023-05-08T10:28:05;10.90;;;9.40;;
47625;SDS011;33342;45.574;9.252;2023-05-08T10:30:41;12.02;;;9.05;;
47625;SDS011;33342;45.574;9.252;2023-05-08T10:33:13;12.05;;;9.13;;
47625;SDS011;33342;45.574;9.252;2023-05-08T10:35:45;10.18;;;8.05;;
47625;SDS011;33342;45.574;9.252;2023-05-08T10:38:12;11.52;;;7.40;;
47625;SDS011;33342;45.574;9.252;2023-05-08T10:40:41;9.07;;;7.45;;
47625;SDS011;33342;45.574;9.252;2023-05-08T10:43:10;11.57;;;7.38;;
47625;SDS011;33342;45.574;9.252;2023-05-08T10:45:37;9.93;;;8.23;;
47625;SDS011;33342;45.574;9.252;2023-05-08T10:50:53;11.85;;;8.25;;
47625;SDS011;33342;45.574;9.252;2023-05-08T10:56:47;11.82;;;8.27;;
47625;SDS011;33342;45.574;9.252;2023-05-08T10:59:18;11.23;;;8.85;;
47625;SDS011;33342;45.574;9.252;2023-05-08T11:01:48;12.57;;;8.15;;
47625;SDS011;33342;45.574;9.252;2023-05-08T11:04:21;9.23;;;7.93;;
47625;SDS011;33342;45.574;9.252;2023-05-08T11:06:49;9.88;;;7.13;;
47625;SDS011;33342;45.574;9.252;2023-05-08T11:09:20;9.82;;;8.65;;
47625;SDS011;33342;45.574;9.252;2023-05-08T11:14:35;11.07;;;9.82;;
47625;SDS011;33342;45.574;9.252;2023-05-08T11:17:06;10.27;;;9.23;;
47625;SDS011;33342;45.574;9.252;2023-05-08T11:19:34;10.65;;;9.55;;
47625;SDS011;33342;45.574;9.252;2023-05-08T11:22:24;11.05;;;8.38;;
47625;SDS011;33342;45.574;9.252;2023-05-08T11:24:57;9.88;;;7.82;;
47625;SDS011;33342;45.574;9.252;2023-05-08T11:35:48;11.25;;;8.10;;
47625;SDS011;33342;45.574;9.252;2023-05-08T11:38:35;11.57;;;9.02;;
47625;SDS011;33342;45.574;9.252;2023-05-08T11:41:07;10.77;;;8.95;;
47625;SDS011;33342;45.574;9.252;2023-05-08T11:46:41;10.07;;;8.25;;
47625;SDS011;33342;45.574;9.252;2023-05-08T11:49:09;10.85;;;8.15;;
47625;SDS011;33342;45.574;9.252;2023-05-08T11:51:37;12.02;;;8.65;;
47625;SDS011;33342;45.574;9.252;2023-05-08T11:54:13;10.90;;;8.10;;
47625;SDS011;33342;45.574;9.252;2023-05-08T11:56:45;10.60;;;8.68;;
47625;SDS011;33342;45.574;9.252;2023-05-08T11:59:14;8.48;;;7.32;;
47625;SDS011;33342;45.574;9.252;2023-05-08T12:01:41;10.07;;;7.10;;
47625;SDS011;33342;45.574;9.252;2023-05-08T12:04:22;10.02;;;6.97;;
47625;SDS011;33342;45.574;9.252;2023-05-08T12:06:49;9.45;;;7.03;;
47625;SDS011;33342;45.574;9.252;2023-05-08T12:09:22;11.05;;;7.10;;
47625;SDS011;33342;45.574;9.252;2023-05-08T12:11:50;8.95;;;6.03;;
47625;SDS011;33342;45.574;9.252;2023-05-08T12:14:22;8.50;;;6.10;;
47625;SDS011;33342;45.574;9.252;2023-05-08T12:16:49;8.40;;;5.57;;
47625;SDS011;33342;45.574;9.252;2023-05-08T12:19:16;6.85;;;5.28;;
47625;SDS011;33342;45.574;9.252;2023-05-08T12:21:47;7.40;;;4.80;;
47625;SDS011;33342;45.574;9.252;2023-05-08T12:24:15;7.22;;;4.55;;
47625;SDS011;33342;45.574;9.252;2023-05-08T12:26:51;6.97;;;4.88;;
47625;SDS011;33342;45.574;9.252;2023-05-08T12:29:19;8.90;;;4.57;;
47625;SDS011;33342;45.574;9.252;2023-05-08T12:31:47;6.22;;;4.57;;
47625;SDS011;33342;45.574;9.252;2023-05-08T12:34:14;7.30;;;4.28;;
47625;SDS011;33342;45.574;9.252;2023-05-08T12:36:41;5.93;;;3.72;;
47625;SDS011;33342;45.574;9.252;2023-05-08T12:39:12;5.72;;;4.07;;
47625;SDS011;33342;45.574;9.252;2023-05-08T12:41:41;7.95;;;4.35;;
47625;SDS011;33342;45.574;9.252;2023-05-08T12:44:19;6.57;;;4.07;;
47625;SDS011;33342;45.574;9.252;2023-05-08T12:46:49;6.32;;;4.10;;
47625;SDS011;33342;45.574;9.252;2023-05-08T12:49:26;6.72;;;3.70;;
47625;SDS011;33342;45.574;9.252;2023-05-08T12:52:07;5.97;;;3.67;;
47625;SDS011;33342;45.574;9.252;2023-05-08T12:54:35;5.50;;;3.75;;
47625;SDS011;33342;45.574;9.252;2023-05-08T12:57:09;7.55;;;4.05;;
47625;SDS011;33342;45.574;9.252;2023-05-08T12:59:37;6.43;;;4.38;;
47625;SDS011;33342;45.574;9.252;2023-05-08T13:02:10;6.05;;;4.28;;
47625;SDS011;33342;45.574;9.252;2023-05-08T13:04:42;6.10;;;3.85;;
47625;SDS011;33342;45.574;9.252;2023-05-08T13:07:10;8.00;;;4.28;;
47625;SDS011;33342;45.574;9.252;2023-05-08T13:09:37;7.45;;;4.18;;
47625;SDS011;33342;45.574;9.252;2023-05-08T13:12:05;7.00;;;4.40;;
47625;SDS011;33342;45.574;9.252;2023-05-08T13:14:33;6.85;;;4.40;;
47625;SDS011;33342;45.574;9.252;2023-05-08T13:17:00;7.72;;;4.60;;
47625;SDS011;33342;45.574;9.252;2023-05-08T13:19:27;5.75;;;4.22;;
47625;SDS011;33342;45.574;9.252;2023-05-08T13:21:54;6.72;;;4.78;;
47625;SDS011;33342;45.574;9.252;2023-05-08T13:24:21;6.47;;;4.28;;
47625;SDS011;33342;45.574;9.252;2023-05-08T13:26:48;7.57;;;4.57;;
47625;SDS011;33342;45.574;9.252;2023-05-08T13:29:15;7.32;;;4.43;;
47625;SDS011;33342;45.574;9.252;2023-05-08T13:31:42;6.88;;;4.72;;
47625;SDS011;33342;45.574;9.252;2023-05-08T13:34:09;6.45;;;4.20;;
47625;SDS011;33342;45.574;9.252;2023-05-08T13:36:36;8.82;;;6.03;;
47625;SDS011;33342;45.574;9.252;2023-05-08T13:39:03;7.50;;;5.25;;
47625;SDS011;33342;45.574;9.252;2023-05-08T13:41:30;7.63;;;4.63;;
47625;SDS011;33342;45.574;9.252;2023-05-08T13:43:57;7.63;;;4.38;;
47625;SDS011;33342;45.574;9.252;2023-05-08T13:46:24;7.00;;;4.47;;
47625;SDS011;33342;45.574;9.252;2023-05-08T13:48:51;6.78;;;4.75;;
47625;SDS011;33342;45.574;9.252;2023-05-08T13:51:18;6.55;;;4.68;;
47625;SDS011;33342;45.574;9.252;2023-05-08T13:53:45;9.40;;;4.88;;
47625;SDS011;33342;45.574;9.252;2023-05-08T13:56:12;5.93;;;4.60;;
47625;SDS011;33342;45.574;9.252;2023-05-08T13:58:39;7.50;;;6.20;;
47625;SDS011;33342;45.574;9.252;2023-05-08T14:01:06;6.90;;;5.13;;
47625;SDS011;33342;45.574;9.252;2023-05-08T14:03:50;6.90;;;5.07;;
47625;SDS011;33342;45.574;9.252;2023-05-08T14:06:17;6.45;;;4.50;;
47625;SDS011;33342;45.574;9.252;2023-05-08T14:08:45;7.18;;;4.95;;
47625;SDS011;33342;45.574;9.252;2023-05-08T14:11:17;8.80;;;6.95;;
47625;SDS011;33342;45.574;9.252;2023-05-08T14:13:44;8.55;;;5.60;;
47625;SDS011;33342;45.574;9.252;2023-05-08T14:16:10;7.15;;;4.68;;
47625;SDS011;33342;45.574;9.252;2023-05-08T14:18:39;8.40;;;5.80;;
47625;SDS011;33342;45.574;9.252;2023-05-08T14:21:06;8.57;;;5.45;;
47625;SDS011;33342;45.574;9.252;2023-05-08T14:23:33;7.00;;;5.38;;
47625;SDS011;33342;45.574;9.252;2023-05-08T14:26:01;7.85;;;5.35;;
47625;SDS011;33342;45.574;9.252;2023-05-08T14:28:28;6.70;;;4.38;;
47625;SDS011;33342;45.574;9.252;2023-05-08T14:30:55;7.18;;;4.50;;
47625;SDS011;33342;45.574;9.252;2023-05-08T14:33:22;7.50;;;4.43;;
47625;SDS011;33342;45.574;9.252;2023-05-08T14:35:49;6.18;;;4.68;;
47625;SDS011;33342;45.574;9.252;2023-05-08T14:38:16;5.88;;;3.80;;
47625;SDS011;33342;45.574;9.252;2023-05-08T14:40:43;7.70;;;4.18;;
47625;SDS011;33342;45.574;9.252;2023-05-08T14:43:10;7.25;;;4.40;;
47625;SDS011;33342;45.574;9.252;2023-05-08T14:45:37;6.32;;;4.40;;
47625;SDS011;33342;45.574;9.252;2023-05-08T14:48:04;6.15;;;4.47;;
47625;SDS011;33342;45.574;9.252;2023-05-08T14:50:32;6.65;;;4.20;;
47625;SDS011;33342;45.574;9.252;2023-05-08T14:52:59;7.40;;;4.32;;
47625;SDS011;33342;45.574;9.252;2023-05-08T14:55:26;6.68;;;4.10;;
47625;SDS011;33342;45.574;9.252;2023-05-08T14:57:53;7.60;;;4.65;;
47625;SDS011;33342;45.574;9.252;2023-05-08T15:00:21;6.30;;;4.55;;
47625;SDS011;33342;45.574;9.252;2023-05-08T15:02:48;8.40;;;4.90;;
47625;SDS011;33342;45.574;9.252;2023-05-08T15:05:16;8.60;;;5.28;;
47625;SDS011;33342;45.574;9.252;2023-05-08T15:08:03;7.07;;;5.00;;
47625;SDS011;33342;45.574;9.252;2023-05-08T15:10:30;7.20;;;5.30;;
47625;SDS011;33342;45.574;9.252;2023-05-08T15:12:57;7.05;;;5.70;;
47625;SDS011;33342;45.574;9.252;2023-05-08T15:15:25;10.85;;;6.50;;
47625;SDS011;33342;45.574;9.252;2023-05-08T15:17:52;9.85;;;6.72;;
47625;SDS011;33342;45.574;9.252;2023-05-08T15:20:19;7.82;;;5.78;;
47625;SDS011;33342;45.574;9.252;2023-05-08T15:22:46;9.30;;;6.68;;
47625;SDS011;33342;45.574;9.252;2023-05-08T15:25:13;8.75;;;5.82;;
47625;SDS011;33342;45.574;9.252;2023-05-08T15:27:41;8.32;;;5.20;;
47625;SDS011;33342;45.574;9.252;2023-05-08T15:30:09;7.97;;;5.53;;
47625;SDS011;33342;45.574;9.252;2023-05-08T15:32:36;9.02;;;6.57;;
47625;SDS011;33342;45.574;9.252;2023-05-08T15:35:05;8.52;;;6.03;;
47625;SDS011;33342;45.574;9.252;2023-05-08T15:37:32;12.02;;;7.30;;
47625;SDS011;33342;45.574;9.252;2023-05-08T15:40:00;10.52;;;7.80;;
47625;SDS011;33342;45.574;9.252;2023-05-08T15:42:27;8.55;;;7.20;;
47625;SDS011;33342;45.574;9.252;2023-05-08T15:44:55;12.65;;;6.50;;
47625;SDS011;33342;45.574;9.252;2023-05-08T15:47:25;9.43;;;7.35;;
47625;SDS011;33342;45.574;9.252;2023-05-08T15:49:53;10.88;;;7.55;;
47625;SDS011;33342;45.574;9.252;2023-05-08T15:52:20;9.10;;;6.10;;
47625;SDS011;33342;45.574;9.252;2023-05-08T15:54:48;8.30;;;7.40;;
47625;SDS011;33342;45.574;9.252;2023-05-08T15:57:15;12.60;;;6.70;;